createdAt,value
2019-03-15T00:01:42.460Z,6.94
2019-03-15T00:04:11.235Z,6.94
2019-03-15T00:06:39.791Z,6.93
2019-03-15T00:09:08.709Z,6.89
2019-03-15T00:11:37.139Z,6.89
2019-03-15T00:14:05.836Z,6.95
2019-03-15T00:16:34.591Z,6.95
2019-03-15T00:19:03.082Z,6.95
2019-03-15T00:21:31.537Z,6.90
2019-03-15T00:24:00.236Z,6.86
2019-03-15T00:26:28.751Z,6.80
2019-03-15T00:28:57.334Z,6.73
2019-03-15T00:31:26.383Z,6.69
2019-03-15T00:33:54.908Z,6.63
2019-03-15T00:36:23.374Z,6.61
2019-03-15T00:38:51.828Z,6.62
2019-03-15T00:41:20.273Z,6.65
2019-03-15T00:43:49.530Z,6.67
2019-03-15T00:46:18.305Z,6.70
2019-03-15T00:48:46.777Z,6.71
2019-03-15T00:51:15.275Z,6.75
2019-03-15T00:53:43.823Z,6.77
2019-03-15T00:56:12.309Z,6.77
2019-03-15T00:58:40.719Z,6.84
2019-03-15T01:01:09.671Z,6.93
2019-03-15T01:03:38.492Z,7.01
2019-03-15T01:06:06.954Z,7.07
2019-03-15T01:08:35.433Z,7.10
2019-03-15T01:11:03.891Z,7.13
2019-03-15T01:13:32.369Z,7.18
2019-03-15T01:16:00.918Z,7.18
2019-03-15T01:18:29.450Z,7.17
2019-03-15T01:20:57.877Z,7.17
2019-03-15T01:23:26.309Z,7.20
2019-03-15T01:25:56.793Z,7.20
2019-03-15T01:28:25.256Z,7.22
2019-03-15T01:30:54.219Z,7.22
2019-03-15T01:33:22.743Z,7.21
2019-03-15T01:35:51.185Z,7.21
2019-03-15T01:38:19.680Z,7.20
2019-03-15T01:40:48.944Z,7.21
2019-03-15T01:43:17.668Z,7.18
2019-03-15T01:45:46.113Z,7.13
2019-03-15T01:48:14.542Z,7.03
2019-03-15T01:50:43.054Z,6.97
2019-03-15T01:53:11.552Z,6.93
2019-03-15T01:55:40.049Z,6.96
2019-03-15T01:58:08.693Z,6.93
2019-03-15T02:00:38.622Z,6.87
2019-03-15T02:03:07.369Z,6.82
2019-03-15T02:05:37.436Z,6.82
2019-03-15T02:08:06.166Z,6.81
2019-03-15T02:10:34.655Z,6.79
2019-03-15T02:13:03.102Z,6.76
2019-03-15T02:15:31.529Z,6.71
2019-03-15T02:18:00.047Z,6.67
2019-03-15T02:20:28.553Z,6.67
2019-03-15T02:22:57.116Z,6.67
2019-03-15T02:25:25.591Z,6.66
2019-03-15T02:27:54.031Z,6.59
2019-03-15T02:30:22.590Z,6.59
2019-03-15T02:32:51.059Z,6.60
2019-03-15T02:35:20.114Z,6.55
2019-03-15T02:37:49.796Z,6.51
2019-03-15T02:40:18.236Z,6.49
2019-03-15T02:42:46.688Z,6.48
2019-03-15T02:45:15.216Z,6.44
2019-03-15T02:47:43.759Z,6.39
2019-03-15T02:50:12.228Z,6.39
2019-03-15T02:52:42.303Z,6.46
2019-03-15T02:55:11.007Z,6.53
2019-03-15T02:57:39.467Z,6.58
2019-03-15T03:00:09.437Z,6.69
2019-03-15T03:02:38.034Z,6.78
2019-03-15T03:05:09.153Z,6.86
2019-03-15T03:07:37.686Z,6.93
2019-03-15T03:10:08.305Z,6.95
2019-03-15T03:12:36.739Z,6.98
2019-03-15T03:15:06.817Z,7.01
2019-03-15T03:17:35.626Z,7.05
2019-03-15T03:20:08.450Z,7.07
2019-03-15T03:22:36.889Z,7.10
2019-03-15T03:25:06.570Z,7.13
2019-03-15T03:27:35.036Z,7.15
2019-03-15T03:30:03.675Z,7.16
2019-03-15T03:32:32.213Z,7.17
2019-03-15T03:35:00.982Z,7.18
2019-03-15T03:37:30.198Z,7.17
2019-03-15T03:39:58.685Z,7.18
2019-03-15T03:42:27.192Z,7.19
2019-03-15T03:44:55.634Z,7.20
2019-03-15T03:47:24.128Z,7.00
2019-03-15T03:49:53.554Z,7.22
2019-03-15T03:52:22.050Z,7.24
2019-03-15T03:54:50.523Z,7.24
2019-03-15T03:57:18.942Z,7.24
2019-03-15T03:59:47.386Z,7.20
2019-03-15T04:02:15.830Z,7.20
2019-03-15T04:04:44.264Z,7.22
2019-03-15T04:07:12.927Z,7.24
2019-03-15T04:09:41.362Z,7.22
2019-03-15T04:12:09.895Z,7.22
2019-03-15T04:14:38.529Z,7.20
2019-03-15T04:17:07.054Z,7.17
2019-03-15T04:19:35.490Z,7.17
2019-03-15T04:22:04.096Z,7.15
2019-03-15T04:24:33.047Z,7.13
2019-03-15T04:27:01.533Z,7.14
2019-03-15T04:29:30.002Z,7.13
2019-03-15T04:31:58.396Z,7.08
2019-03-15T04:34:28.334Z,7.13
2019-03-15T04:36:57.234Z,7.14
2019-03-15T04:39:25.928Z,7.11
2019-03-15T04:41:54.309Z,7.09
2019-03-15T04:44:22.710Z,7.08
2019-03-15T04:46:51.220Z,7.09
2019-03-15T04:49:19.733Z,7.07
2019-03-15T04:51:48.430Z,7.08
2019-03-15T04:54:16.878Z,7.10
2019-03-15T04:56:45.342Z,7.08
2019-03-15T04:59:13.815Z,7.04
2019-03-15T05:01:42.231Z,7.01
2019-03-15T05:04:10.668Z,7.02
2019-03-15T05:06:39.135Z,6.99
2019-03-15T05:09:07.702Z,6.95
2019-03-15T05:11:36.108Z,6.97
2019-03-15T05:14:04.644Z,6.99
2019-03-15T05:16:33.086Z,6.97
2019-03-15T05:19:01.626Z,6.99
2019-03-15T05:21:30.053Z,7.04
2019-03-15T05:23:58.494Z,7.04
2019-03-15T05:26:27.309Z,7.05
2019-03-15T05:28:55.744Z,7.07
2019-03-15T05:31:24.191Z,7.05
2019-03-15T05:33:52.660Z,7.01
2019-03-15T05:36:21.115Z,6.99
2019-03-15T05:38:49.539Z,6.98
2019-03-15T05:41:17.980Z,6.96
2019-03-15T05:43:46.455Z,6.96
2019-03-15T05:46:14.874Z,6.93
2019-03-15T05:48:43.394Z,6.90
2019-03-15T05:51:11.820Z,6.93
2019-03-15T05:53:40.338Z,7.01
2019-03-15T05:56:08.880Z,7.07
2019-03-15T05:58:37.289Z,7.09
2019-03-15T06:01:05.726Z,7.09
2019-03-15T06:03:47.494Z,7.10
2019-03-15T06:06:04.385Z,7.14
2019-03-15T06:08:32.883Z,7.19
2019-03-15T06:11:01.454Z,7.24
2019-03-15T06:13:29.888Z,7.28
2019-03-15T06:15:58.368Z,7.30
2019-03-15T06:18:26.877Z,7.34
2019-03-15T06:20:55.485Z,7.38
2019-03-15T06:23:23.970Z,7.41
2019-03-15T06:25:52.847Z,7.40
2019-03-15T06:28:22.021Z,7.40
2019-03-15T06:30:50.478Z,7.42
2019-03-15T06:33:19.010Z,7.43
2019-03-15T06:35:47.460Z,7.47
2019-03-15T06:38:16.298Z,7.45
2019-03-15T06:40:44.756Z,7.42
2019-03-15T06:43:13.696Z,7.37
2019-03-15T06:45:42.223Z,7.37
2019-03-15T06:48:10.680Z,7.41
2019-03-15T06:50:39.208Z,7.47
2019-03-15T06:53:07.644Z,7.55
2019-03-15T06:55:36.382Z,7.64
2019-03-15T06:58:04.814Z,7.72
2019-03-15T07:00:33.276Z,7.79
2019-03-15T07:03:01.791Z,7.85
2019-03-15T07:05:30.241Z,7.87
2019-03-15T07:07:58.678Z,7.90
2019-03-15T07:10:27.134Z,7.96
2019-03-15T07:12:55.581Z,8.05
2019-03-15T07:15:24.041Z,8.12
2019-03-15T07:17:52.543Z,8.20
2019-03-15T07:20:20.987Z,8.29
2019-03-15T07:22:49.518Z,8.34
2019-03-15T07:25:17.985Z,8.40
2019-03-15T07:27:47.055Z,8.46
2019-03-15T07:30:16.056Z,8.58
2019-03-15T07:32:44.484Z,8.61
2019-03-15T07:35:12.996Z,8.63
2019-03-15T07:37:41.514Z,8.62
2019-03-15T07:40:13.781Z,8.65
2019-03-15T07:42:42.337Z,8.64
2019-03-15T07:45:12.931Z,8.63
2019-03-15T07:47:41.352Z,8.63
2019-03-15T07:50:16.345Z,8.66
2019-03-15T07:52:44.853Z,8.67
2019-03-15T07:55:13.323Z,8.71
2019-03-15T07:57:41.779Z,8.73
2019-03-15T08:00:17.715Z,8.79
2019-03-15T08:02:46.177Z,8.83
2019-03-15T08:05:14.675Z,8.85
2019-03-15T08:07:45.624Z,8.88
2019-03-15T08:10:13.743Z,8.92
2019-03-15T08:12:42.174Z,8.95
2019-03-15T08:15:12.187Z,8.94
2019-03-15T08:17:40.643Z,8.97
2019-03-15T08:20:14.157Z,9.02
2019-03-15T08:22:42.660Z,9.02
2019-03-15T08:25:12.022Z,9.05
2019-03-15T08:27:40.523Z,9.10
2019-03-15T08:30:13.707Z,9.11
2019-03-15T08:32:43.970Z,9.10
2019-03-15T08:35:12.930Z,9.09
2019-03-15T08:37:41.401Z,9.12
2019-03-15T08:41:04.535Z,9.13
2019-03-15T08:43:33.090Z,9.19
2019-03-15T08:46:03.009Z,9.11
2019-03-15T08:48:32.055Z,9.07
2019-03-15T08:51:00.591Z,9.06
2019-03-15T08:53:29.029Z,9.07
2019-03-15T08:55:57.487Z,9.07
2019-03-15T08:58:25.991Z,9.02
2019-03-15T09:00:54.635Z,8.99
2019-03-15T09:03:28.267Z,8.93
2019-03-15T09:05:53.295Z,8.91
2019-03-15T09:08:21.717Z,8.91
2019-03-15T09:10:50.150Z,8.95
2019-03-15T09:13:18.630Z,8.96
2019-03-15T09:15:47.142Z,8.94
2019-03-15T09:18:16.023Z,8.89
2019-03-15T09:20:44.515Z,8.83
2019-03-15T09:23:12.935Z,8.76
2019-03-15T09:25:41.339Z,8.78
2019-03-15T09:28:09.809Z,8.83
2019-03-15T09:30:38.256Z,8.85
2019-03-15T09:33:06.702Z,8.79
2019-03-15T09:35:35.166Z,8.74
2019-03-15T09:38:03.582Z,8.71
2019-03-15T09:40:32.027Z,8.69
2019-03-15T09:43:00.480Z,8.72
2019-03-15T09:45:29.055Z,8.72
2019-03-15T09:47:57.563Z,8.63
2019-03-15T09:50:34.202Z,8.75
2019-03-15T09:52:56.170Z,8.78
2019-03-15T09:55:33.019Z,8.85
2019-03-15T09:57:54.777Z,8.78
2019-03-15T10:00:23.339Z,8.74
2019-03-15T10:02:51.761Z,8.69
2019-03-15T10:05:20.211Z,8.71
2019-03-15T10:07:48.648Z,8.72
2019-03-15T10:10:20.357Z,8.71
2019-03-15T10:12:48.963Z,8.74
2019-03-15T10:15:17.905Z,8.75
2019-03-15T10:17:46.650Z,8.77
2019-03-15T10:20:16.155Z,8.75
2019-03-15T10:22:44.654Z,8.74
2019-03-15T10:25:17.035Z,8.67
2019-03-15T10:27:45.458Z,8.59
2019-03-15T10:30:18.367Z,8.57
2019-03-15T10:32:47.055Z,8.56
2019-03-15T10:35:15.610Z,8.51
2019-03-15T10:37:44.082Z,8.49
2019-03-15T10:40:19.484Z,8.48
2019-03-15T10:42:48.118Z,8.44
2019-03-15T10:45:16.588Z,8.46
2019-03-15T10:47:45.075Z,8.44
2019-03-15T10:50:15.190Z,8.41
2019-03-15T10:52:43.824Z,8.36
2019-03-15T10:55:12.432Z,8.34
2019-03-15T10:57:40.967Z,8.32
2019-03-15T11:00:17.024Z,8.37
2019-03-15T11:02:45.514Z,8.42
2019-03-15T11:05:14.006Z,8.52
2019-03-15T11:07:42.480Z,8.65
2019-03-15T11:10:11.963Z,8.75
2019-03-15T11:12:40.519Z,8.79
2019-03-15T11:15:12.095Z,8.79
2019-03-15T11:17:40.535Z,8.78
2019-03-15T11:20:10.310Z,8.73
2019-03-15T11:22:38.832Z,8.71
2019-03-15T11:25:09.049Z,8.60
2019-03-15T11:27:37.503Z,8.83
2019-03-15T11:30:10.870Z,8.83
2019-03-15T11:32:39.325Z,8.83
2019-03-15T11:35:09.082Z,8.85
2019-03-15T11:37:37.699Z,8.83
2019-03-15T11:40:14.063Z,8.81
2019-03-15T11:42:42.203Z,8.78
2019-03-15T11:45:11.770Z,8.76
2019-03-15T11:48:01.279Z,8.75
2019-03-15T11:50:18.989Z,8.77
2019-03-15T11:52:47.477Z,8.82
2019-03-15T11:55:16.264Z,8.84
2019-03-15T11:57:44.737Z,8.89
2019-03-15T12:00:16.221Z,8.89
2019-03-15T12:02:44.725Z,8.95
2019-03-15T12:05:14.195Z,9.00
2019-03-15T12:07:42.799Z,9.02
2019-03-15T12:10:14.282Z,9.04
2019-03-15T12:12:42.850Z,9.11
2019-03-15T12:15:12.701Z,9.18
2019-03-15T12:17:41.146Z,9.23
2019-03-15T12:20:11.192Z,9.24
2019-03-15T12:22:39.938Z,9.22
2019-03-15T12:25:09.731Z,9.25
2019-03-15T12:27:38.171Z,9.27
2019-03-15T12:30:11.305Z,9.28
2019-03-15T12:32:39.735Z,9.33
2019-03-15T12:35:12.933Z,9.47
2019-03-15T12:37:41.390Z,9.59
2019-03-15T12:40:14.474Z,9.70
2019-03-15T12:42:42.959Z,9.85
2019-03-15T12:45:14.764Z,10.02
2019-03-15T12:47:43.630Z,10.30
2019-03-15T12:50:13.522Z,10.52
2019-03-15T12:52:47.782Z,10.71
2019-03-15T12:55:14.235Z,10.88
2019-03-15T12:57:42.774Z,11.11
2019-03-15T13:00:21.887Z,11.28
2019-03-15T13:02:50.407Z,11.40
2019-03-15T13:05:18.870Z,11.47
2019-03-15T13:07:47.320Z,11.52
2019-03-15T13:10:22.853Z,11.59
2019-03-15T13:12:51.315Z,11.61
2019-03-15T13:15:19.760Z,11.68
2019-03-15T13:17:48.381Z,11.72
2019-03-15T13:20:17.445Z,11.73
2019-03-15T13:22:46.063Z,11.65
2019-03-15T13:25:14.646Z,11.61
2019-03-15T13:27:43.206Z,11.66
2019-03-15T13:30:13.880Z,11.80
2019-03-15T13:32:42.442Z,11.92
2019-03-15T13:35:11.678Z,12.02
2019-03-15T13:37:43.164Z,12.09
2019-03-15T13:40:15.735Z,12.19
2019-03-15T13:42:44.159Z,12.26
2019-03-15T13:45:13.923Z,12.26
2019-03-15T13:47:42.447Z,12.18
2019-03-15T13:50:15.167Z,12.01
2019-03-15T13:52:43.766Z,11.94
2019-03-15T13:55:12.583Z,11.88
2019-03-15T13:57:41.039Z,11.89
2019-03-15T14:00:17.285Z,11.89
2019-03-15T14:02:45.723Z,11.89
2019-03-15T14:05:14.339Z,11.89
2019-03-15T14:07:43.053Z,11.90
2019-03-15T14:10:15.220Z,11.90
2019-03-15T14:12:43.939Z,11.98
2019-03-15T14:15:13.621Z,12.09
2019-03-15T14:17:42.074Z,12.16
2019-03-15T14:20:11.951Z,12.26
2019-03-15T14:22:40.388Z,12.33
2019-03-15T14:25:11.898Z,12.42
2019-03-15T14:27:40.331Z,12.48
2019-03-15T14:30:11.919Z,12.53
2019-03-15T14:32:40.823Z,12.56
2019-03-15T14:35:10.127Z,12.61
2019-03-15T14:37:38.865Z,12.64
2019-03-15T14:40:11.782Z,12.69
2019-03-15T14:42:40.912Z,12.72
2019-03-15T14:45:14.285Z,12.74
2019-03-15T14:47:42.844Z,12.78
2019-03-15T14:50:12.782Z,12.79
2019-03-15T14:52:41.269Z,12.82
2019-03-15T14:55:14.591Z,12.85
2019-03-15T14:57:52.133Z,12.87
2019-03-15T15:00:17.760Z,12.86
2019-03-15T15:02:46.203Z,12.84
2019-03-15T15:05:14.639Z,12.70
2019-03-15T15:07:43.101Z,12.78
2019-03-15T15:10:13.943Z,12.72
2019-03-15T15:12:42.489Z,12.65
2019-03-15T15:15:18.087Z,12.60
2019-03-15T15:17:46.587Z,12.54
2019-03-15T15:20:14.990Z,12.50
2019-03-15T15:22:43.525Z,12.47
2019-03-15T15:25:15.948Z,12.44
2019-03-15T15:27:44.404Z,12.41
2019-03-15T15:30:15.466Z,12.34
2019-03-15T15:32:43.891Z,12.32
2019-03-15T15:35:13.265Z,12.31
2019-03-15T15:37:41.817Z,12.32
2019-03-15T15:40:16.098Z,12.29
2019-03-15T15:42:44.562Z,12.26
2019-03-15T15:45:13.373Z,12.23
2019-03-15T15:47:41.904Z,12.18
2019-03-15T15:50:13.538Z,12.16
2019-03-15T15:52:41.981Z,12.12
2019-03-15T15:55:12.766Z,12.10
2019-03-15T15:57:41.195Z,12.09
2019-03-15T16:00:17.927Z,12.05
2019-03-15T16:02:46.456Z,12.01
2019-03-15T16:05:15.253Z,12.00
2019-03-15T16:07:43.694Z,11.98
2019-03-15T16:10:17.369Z,11.93
2019-03-15T16:12:44.468Z,11.91
2019-03-15T16:15:19.592Z,11.90
2019-03-15T16:17:48.044Z,11.87
2019-03-15T16:20:16.636Z,11.83
2019-03-15T16:22:45.234Z,11.80
2019-03-15T16:25:13.951Z,11.76
2019-03-15T16:27:42.542Z,11.70
2019-03-15T16:30:15.598Z,11.66
2019-03-15T16:32:44.097Z,11.64
2019-03-15T16:35:13.568Z,11.58
2019-03-15T16:37:42.068Z,11.52
2019-03-15T16:40:12.086Z,11.50
2019-03-15T16:42:40.514Z,11.41
2019-03-15T16:45:15.483Z,11.33
2019-03-15T16:47:43.953Z,11.24
2019-03-15T16:50:13.303Z,11.21
2019-03-15T16:52:41.861Z,11.19
2019-03-15T16:55:11.963Z,11.15
2019-03-15T16:57:40.464Z,11.11
2019-03-15T17:00:17.892Z,11.08
2019-03-15T17:02:46.409Z,11.06
2019-03-15T17:05:15.254Z,11.04
2019-03-15T17:07:44.183Z,11.01
2019-03-15T17:10:13.832Z,10.96
2019-03-15T17:12:42.859Z,10.92
2019-03-15T17:15:14.349Z,10.91
2019-03-15T17:17:42.828Z,10.90
2019-03-15T17:20:12.041Z,10.84
2019-03-15T17:22:40.495Z,10.79
2019-03-15T17:25:10.973Z,10.73
2019-03-15T17:27:39.473Z,10.64
2019-03-15T17:30:13.991Z,10.55
2019-03-15T17:32:42.258Z,10.49
2019-03-15T17:35:12.317Z,10.40
2019-03-15T17:37:40.766Z,10.41
2019-03-15T17:40:14.957Z,10.35
2019-03-15T17:42:43.387Z,10.28
2019-03-15T17:45:12.036Z,10.24
2019-03-15T17:47:40.480Z,10.17
2019-03-15T17:50:20.165Z,10.07
2019-03-15T17:52:48.729Z,9.99
2019-03-15T17:55:18.185Z,9.92
2019-03-15T17:57:46.684Z,9.89
2019-03-15T18:00:21.828Z,9.86
2019-03-15T18:02:50.264Z,9.81
2019-03-15T18:05:18.761Z,9.76
2019-03-15T18:07:47.228Z,9.70
2019-03-15T18:10:15.812Z,9.66
2019-03-15T18:12:49.252Z,9.59
2019-03-15T18:15:17.735Z,9.56
2019-03-15T18:17:46.539Z,9.53
2019-03-15T18:20:15.135Z,9.50
2019-03-15T18:22:43.648Z,9.43
2019-03-15T18:25:12.251Z,9.39
2019-03-15T18:27:40.932Z,9.36
2019-03-15T18:30:12.283Z,9.37
2019-03-15T18:32:40.812Z,9.36
2019-03-15T18:35:10.298Z,9.34
2019-03-15T18:37:38.820Z,9.31
2019-03-15T18:40:10.278Z,9.34
2019-03-15T18:42:39.218Z,9.29
2019-03-15T18:45:10.744Z,9.24
2019-03-15T18:47:39.376Z,9.23
2019-03-15T18:50:17.069Z,9.19
2019-03-15T18:52:45.777Z,9.16
2019-03-15T18:55:14.217Z,9.10
2019-03-15T18:57:42.841Z,9.03
2019-03-15T19:00:21.336Z,9.05
2019-03-15T19:02:49.943Z,9.01
2019-03-15T19:05:18.382Z,8.98
2019-03-15T19:07:46.801Z,8.97
2019-03-15T19:10:16.250Z,8.99
2019-03-15T19:12:44.731Z,9.06
2019-03-15T19:15:14.966Z,9.09
2019-03-15T19:17:43.813Z,9.08
2019-03-15T19:20:13.909Z,9.02
2019-03-15T19:22:42.502Z,8.98
2019-03-15T19:25:11.874Z,8.98
2019-03-15T19:27:40.392Z,8.96
2019-03-15T19:30:16.967Z,8.89
2019-03-15T19:32:45.561Z,8.82
2019-03-15T19:35:14.174Z,8.76
2019-03-15T19:37:42.601Z,8.73
2019-03-15T19:40:15.817Z,8.69
2019-03-15T19:42:45.402Z,8.66
2019-03-15T19:45:15.366Z,8.65
2019-03-15T19:47:43.790Z,8.62
2019-03-15T19:50:20.460Z,8.62
2019-03-15T19:52:49.122Z,8.66
2019-03-15T19:55:17.790Z,8.72
2019-03-15T19:57:46.218Z,8.70
2019-03-15T20:00:16.927Z,8.63
2019-03-15T20:02:45.578Z,8.58
2019-03-15T20:05:14.075Z,8.54
2019-03-15T20:07:42.692Z,8.51
2019-03-15T20:10:16.789Z,8.44
2019-03-15T20:12:45.658Z,8.39
2019-03-15T20:15:15.442Z,8.35
2019-03-15T20:17:43.883Z,8.35
2019-03-15T20:20:16.971Z,8.33
2019-03-15T20:22:45.646Z,8.30
2019-03-15T20:25:15.372Z,8.33
2019-03-15T20:27:43.834Z,8.31
2019-03-15T20:30:22.006Z,8.25
2019-03-15T20:32:47.596Z,8.21
2019-03-15T20:35:16.099Z,8.16
2019-03-15T20:37:44.536Z,8.11
2019-03-15T20:40:14.670Z,8.10
2019-03-15T20:42:43.170Z,8.10
2019-03-15T20:45:19.218Z,8.08
2019-03-15T20:47:47.650Z,8.05
2019-03-15T20:50:16.172Z,8.07
2019-03-15T20:52:44.647Z,8.03
2019-03-15T20:55:13.157Z,7.99
2019-03-15T20:57:41.615Z,7.97
2019-03-15T21:00:15.414Z,7.94
2019-03-15T21:02:43.868Z,7.91
2019-03-15T21:05:12.693Z,7.90
2019-03-15T21:07:43.417Z,7.89
2019-03-15T21:10:18.943Z,7.84
2019-03-15T21:12:47.617Z,7.80
2019-03-15T21:15:16.729Z,7.65
2019-03-15T21:17:45.480Z,7.76
2019-03-15T21:20:22.603Z,7.75
2019-03-15T21:22:49.995Z,7.73
2019-03-15T21:25:18.462Z,7.71
2019-03-15T21:27:54.180Z,7.70
2019-03-15T21:30:24.969Z,7.69
2019-03-15T21:32:53.414Z,7.69
2019-03-15T21:35:22.939Z,7.75
2019-03-15T21:37:51.380Z,7.75
2019-03-15T21:40:20.428Z,7.70
2019-03-15T21:42:48.876Z,7.72
2019-03-15T21:45:17.456Z,7.73
2019-03-15T21:47:45.867Z,7.77
2019-03-15T21:50:15.862Z,7.83
2019-03-15T21:52:44.407Z,7.87
2019-03-15T21:55:12.912Z,7.89
2019-03-15T21:57:41.375Z,7.89
2019-03-15T22:00:13.189Z,7.86
2019-03-15T22:02:41.648Z,7.91
2019-03-15T22:05:10.225Z,7.95
2019-03-15T22:07:39.124Z,7.95
2019-03-15T22:10:15.468Z,7.94
2019-03-15T22:12:43.966Z,7.96
2019-03-15T22:15:13.638Z,7.91
2019-03-15T22:17:42.472Z,7.81
2019-03-15T22:20:16.292Z,7.76
2019-03-15T22:22:44.772Z,7.73
2019-03-15T22:25:14.332Z,7.69
2019-03-15T22:27:43.058Z,7.65
2019-03-15T22:30:15.802Z,7.48
2019-03-15T22:32:44.240Z,7.66
2019-03-15T22:35:12.753Z,7.65
2019-03-15T22:37:41.212Z,7.61
2019-03-15T22:40:11.433Z,7.56
2019-03-15T22:42:39.945Z,7.53
2019-03-15T22:45:10.045Z,7.51
2019-03-15T22:47:38.885Z,7.53
2019-03-15T22:50:09.230Z,7.53
2019-03-15T22:52:37.689Z,7.54
2019-03-15T22:55:08.329Z,7.57
2019-03-15T22:57:36.761Z,7.62
2019-03-15T23:00:11.069Z,7.67
2019-03-15T23:02:40.100Z,7.72
2019-03-15T23:05:08.982Z,7.74
2019-03-15T23:07:37.462Z,7.75
2019-03-15T23:10:08.238Z,7.77
2019-03-15T23:12:36.675Z,7.77
2019-03-15T23:15:07.663Z,7.80
2019-03-15T23:17:36.250Z,7.79
2019-03-15T23:20:06.649Z,7.79
2019-03-15T23:22:35.079Z,7.78
2019-03-15T23:25:04.487Z,7.75
2019-03-15T23:27:32.995Z,7.67
2019-03-15T23:30:01.428Z,7.62
2019-03-15T23:32:29.971Z,7.57
2019-03-15T23:34:58.411Z,7.51
2019-03-15T23:37:26.830Z,7.47
2019-03-15T23:39:55.309Z,7.44
2019-03-15T23:42:23.781Z,7.39
2019-03-15T23:44:52.220Z,7.33
2019-03-15T23:47:20.656Z,7.28
2019-03-15T23:49:49.128Z,7.26
2019-03-15T23:52:17.583Z,7.23
2019-03-15T23:54:46.080Z,7.21
2019-03-15T23:57:14.516Z,7.20
2019-03-15T23:59:42.976Z,7.26
